sensor_id;sensor_type;location;lat;lon;timestamp;P1;durP1;ratioP1;P2;durP2;ratioP2
68653;SDS011;55636;51.108;13.622;2023-02-13T00:00:43;19.13;;;12.70;;
68653;SDS011;55636;51.108;13.622;2023-02-13T00:01:45;17.87;;;12.77;;
68653;SDS011;55636;51.108;13.622;2023-02-13T00:02:47;18.83;;;12.70;;
68653;SDS011;55636;51.108;13.622;2023-02-13T00:03:50;21.27;;;13.87;;
68653;SDS011;55636;51.108;13.622;2023-02-13T00:04:53;16.97;;;12.47;;
68653;SDS011;55636;51.108;13.622;2023-02-13T00:05:56;18.57;;;12.73;;
68653;SDS011;55636;51.108;13.622;2023-02-13T00:06:58;19.43;;;13.13;;
68653;SDS011;55636;51.108;13.622;2023-02-13T00:08:01;18.87;;;12.57;;
68653;SDS011;55636;51.108;13.622;2023-02-13T00:09:07;19.00;;;12.77;;
68653;SDS011;55636;51.108;13.622;2023-02-13T00:10:12;18.77;;;12.60;;
68653;SDS011;55636;51.108;13.622;2023-02-13T00:11:15;19.03;;;13.30;;
68653;SDS011;55636;51.108;13.622;2023-02-13T00:12:17;21.10;;;13.10;;
68653;SDS011;55636;51.108;13.622;2023-02-13T00:13:19;17.83;;;12.50;;
68653;SDS011;55636;51.108;13.622;2023-02-13T00:14:21;18.17;;;12.97;;
68653;SDS011;55636;51.108;13.622;2023-02-13T00:15:25;18.60;;;13.17;;
68653;SDS011;55636;51.108;13.622;2023-02-13T00:16:27;17.63;;;12.53;;
68653;SDS011;55636;51.108;13.622;2023-02-13T00:17:30;18.07;;;12.90;;
68653;SDS011;55636;51.108;13.622;2023-02-13T00:18:34;19.17;;;13.27;;
68653;SDS011;55636;51.108;13.622;2023-02-13T00:19:38;19.83;;;12.97;;
68653;SDS011;55636;51.108;13.622;2023-02-13T00:20:42;20.13;;;13.87;;
68653;SDS011;55636;51.108;13.622;2023-02-13T00:21:44;18.70;;;12.57;;
68653;SDS011;55636;51.108;13.622;2023-02-13T00:22:46;21.13;;;13.93;;
68653;SDS011;55636;51.108;13.622;2023-02-13T00:23:50;20.80;;;13.60;;
68653;SDS011;55636;51.108;13.622;2023-02-13T00:24:52;18.70;;;13.43;;
68653;SDS011;55636;51.108;13.622;2023-02-13T00:25:55;21.70;;;14.40;;
68653;SDS011;55636;51.108;13.622;2023-02-13T00:26:59;21.70;;;13.70;;
68653;SDS011;55636;51.108;13.622;2023-02-13T00:28:03;23.33;;;14.00;;
68653;SDS011;55636;51.108;13.622;2023-02-13T00:29:06;21.00;;;14.00;;
68653;SDS011;55636;51.108;13.622;2023-02-13T00:30:09;22.13;;;14.53;;
68653;SDS011;55636;51.108;13.622;2023-02-13T00:31:13;22.63;;;14.10;;
68653;SDS011;55636;51.108;13.622;2023-02-13T00:32:17;21.93;;;14.37;;
68653;SDS011;55636;51.108;13.622;2023-02-13T00:33:22;22.07;;;13.40;;
68653;SDS011;55636;51.108;13.622;2023-02-13T00:34:26;23.57;;;13.83;;
68653;SDS011;55636;51.108;13.622;2023-02-13T00:35:29;24.50;;;14.00;;
68653;SDS011;55636;51.108;13.622;2023-02-13T00:36:32;22.13;;;14.20;;
68653;SDS011;55636;51.108;13.622;2023-02-13T00:37:35;21.70;;;13.23;;
68653;SDS011;55636;51.108;13.622;2023-02-13T00:38:37;23.47;;;13.80;;
68653;SDS011;55636;51.108;13.622;2023-02-13T00:39:41;23.07;;;14.87;;
68653;SDS011;55636;51.108;13.622;2023-02-13T00:40:44;21.60;;;14.50;;
68653;SDS011;55636;51.108;13.622;2023-02-13T00:41:46;21.30;;;14.07;;
68653;SDS011;55636;51.108;13.622;2023-02-13T00:42:48;23.67;;;14.77;;
68653;SDS011;55636;51.108;13.622;2023-02-13T00:43:51;22.90;;;14.57;;
68653;SDS011;55636;51.108;13.622;2023-02-13T00:44:53;24.47;;;15.60;;
68653;SDS011;55636;51.108;13.622;2023-02-13T00:45:57;22.87;;;14.50;;
68653;SDS011;55636;51.108;13.622;2023-02-13T00:47:00;23.83;;;15.57;;
68653;SDS011;55636;51.108;13.622;2023-02-13T00:48:02;25.23;;;15.53;;
68653;SDS011;55636;51.108;13.622;2023-02-13T00:49:05;23.87;;;15.00;;
68653;SDS011;55636;51.108;13.622;2023-02-13T00:50:09;21.73;;;14.47;;
68653;SDS011;55636;51.108;13.622;2023-02-13T00:51:12;24.60;;;16.03;;
68653;SDS011;55636;51.108;13.622;2023-02-13T00:52:14;24.83;;;15.07;;
68653;SDS011;55636;51.108;13.622;2023-02-13T00:53:21;22.90;;;14.57;;
68653;SDS011;55636;51.108;13.622;2023-02-13T00:54:24;26.17;;;15.67;;
68653;SDS011;55636;51.108;13.622;2023-02-13T00:55:27;24.07;;;15.37;;
68653;SDS011;55636;51.108;13.622;2023-02-13T00:56:29;24.70;;;15.53;;
68653;SDS011;55636;51.108;13.622;2023-02-13T00:57:35;23.53;;;14.87;;
68653;SDS011;55636;51.108;13.622;2023-02-13T00:58:37;24.53;;;15.90;;
68653;SDS011;55636;51.108;13.622;2023-02-13T00:59:40;24.27;;;15.60;;
68653;SDS011;55636;51.108;13.622;2023-02-13T01:00:52;27.27;;;16.57;;
68653;SDS011;55636;51.108;13.622;2023-02-13T01:01:56;24.53;;;15.40;;
68653;SDS011;55636;51.108;13.622;2023-02-13T01:02:58;25.17;;;15.90;;
68653;SDS011;55636;51.108;13.622;2023-02-13T01:04:01;24.67;;;15.87;;
68653;SDS011;55636;51.108;13.622;2023-02-13T01:05:05;26.00;;;16.63;;
68653;SDS011;55636;51.108;13.622;2023-02-13T01:06:08;22.63;;;16.10;;
68653;SDS011;55636;51.108;13.622;2023-02-13T01:07:10;24.70;;;15.80;;
68653;SDS011;55636;51.108;13.622;2023-02-13T01:08:13;24.83;;;16.27;;
68653;SDS011;55636;51.108;13.622;2023-02-13T01:09:17;24.13;;;15.20;;
68653;SDS011;55636;51.108;13.622;2023-02-13T01:10:20;23.67;;;15.73;;
68653;SDS011;55636;51.108;13.622;2023-02-13T01:11:22;22.83;;;15.47;;
68653;SDS011;55636;51.108;13.622;2023-02-13T01:12:25;25.57;;;15.60;;
68653;SDS011;55636;51.108;13.622;2023-02-13T01:13:28;24.23;;;15.57;;
68653;SDS011;55636;51.108;13.622;2023-02-13T01:14:31;23.97;;;15.90;;
68653;SDS011;55636;51.108;13.622;2023-02-13T01:15:33;24.50;;;15.53;;
68653;SDS011;55636;51.108;13.622;2023-02-13T01:16:36;23.00;;;15.70;;
68653;SDS011;55636;51.108;13.622;2023-02-13T01:17:39;25.57;;;15.33;;
68653;SDS011;55636;51.108;13.622;2023-02-13T01:18:41;22.67;;;15.43;;
68653;SDS011;55636;51.108;13.622;2023-02-13T01:19:43;24.83;;;16.17;;
68653;SDS011;55636;51.108;13.622;2023-02-13T01:20:54;23.00;;;15.77;;
68653;SDS011;55636;51.108;13.622;2023-02-13T01:22:08;26.07;;;16.10;;
68653;SDS011;55636;51.108;13.622;2023-02-13T01:23:10;24.40;;;15.87;;
68653;SDS011;55636;51.108;13.622;2023-02-13T01:24:13;26.43;;;15.83;;
68653;SDS011;55636;51.108;13.622;2023-02-13T01:25:16;24.37;;;16.00;;
68653;SDS011;55636;51.108;13.622;2023-02-13T01:26:19;22.70;;;15.77;;
68653;SDS011;55636;51.108;13.622;2023-02-13T01:27:24;22.23;;;15.80;;
68653;SDS011;55636;51.108;13.622;2023-02-13T01:28:27;23.03;;;15.63;;
68653;SDS011;55636;51.108;13.622;2023-02-13T01:29:29;23.57;;;15.67;;
68653;SDS011;55636;51.108;13.622;2023-02-13T01:30:31;22.93;;;14.90;;
68653;SDS011;55636;51.108;13.622;2023-02-13T01:31:34;24.67;;;16.00;;
68653;SDS011;55636;51.108;13.622;2023-02-13T01:32:38;23.20;;;15.77;;
68653;SDS011;55636;51.108;13.622;2023-02-13T01:33:45;22.97;;;15.07;;
68653;SDS011;55636;51.108;13.622;2023-02-13T01:34:47;22.57;;;15.63;;
68653;SDS011;55636;51.108;13.622;2023-02-13T01:35:51;23.37;;;15.33;;
68653;SDS011;55636;51.108;13.622;2023-02-13T01:36:54;26.73;;;16.40;;
68653;SDS011;55636;51.108;13.622;2023-02-13T01:37:58;24.53;;;16.10;;
68653;SDS011;55636;51.108;13.622;2023-02-13T01:39:00;23.13;;;16.30;;
68653;SDS011;55636;51.108;13.622;2023-02-13T01:40:04;24.63;;;15.67;;
68653;SDS011;55636;51.108;13.622;2023-02-13T01:41:11;24.30;;;16.20;;
68653;SDS011;55636;51.108;13.622;2023-02-13T01:42:23;23.43;;;15.77;;
68653;SDS011;55636;51.108;13.622;2023-02-13T01:44:51;21.53;;;14.57;;
68653;SDS011;55636;51.108;13.622;2023-02-13T01:45:55;20.53;;;14.57;;
68653;SDS011;55636;51.108;13.622;2023-02-13T01:46:59;22.80;;;15.27;;
68653;SDS011;55636;51.108;13.622;2023-02-13T01:48:02;24.23;;;15.87;;
68653;SDS011;55636;51.108;13.622;2023-02-13T01:49:10;23.03;;;15.70;;
68653;SDS011;55636;51.108;13.622;2023-02-13T01:50:18;21.87;;;15.93;;
68653;SDS011;55636;51.108;13.622;2023-02-13T01:51:27;22.87;;;15.83;;
68653;SDS011;55636;51.108;13.622;2023-02-13T01:52:37;24.10;;;16.00;;
68653;SDS011;55636;51.108;13.622;2023-02-13T01:53:58;22.77;;;15.40;;
68653;SDS011;55636;51.108;13.622;2023-02-13T01:55:04;22.50;;;15.63;;
68653;SDS011;55636;51.108;13.622;2023-02-13T01:56:12;23.73;;;15.80;;
68653;SDS011;55636;51.108;13.622;2023-02-13T01:57:21;24.07;;;15.70;;
68653;SDS011;55636;51.108;13.622;2023-02-13T01:58:27;22.17;;;15.97;;
68653;SDS011;55636;51.108;13.622;2023-02-13T01:59:56;23.53;;;15.63;;
68653;SDS011;55636;51.108;13.622;2023-02-13T02:01:01;22.00;;;14.80;;
68653;SDS011;55636;51.108;13.622;2023-02-13T02:02:05;22.40;;;16.00;;
68653;SDS011;55636;51.108;13.622;2023-02-13T02:03:09;22.47;;;15.30;;
68653;SDS011;55636;51.108;13.622;2023-02-13T02:04:18;20.50;;;15.13;;
68653;SDS011;55636;51.108;13.622;2023-02-13T02:05:26;22.70;;;15.57;;
68653;SDS011;55636;51.108;13.622;2023-02-13T02:06:33;22.87;;;15.40;;
68653;SDS011;55636;51.108;13.622;2023-02-13T02:07:39;21.90;;;15.17;;
68653;SDS011;55636;51.108;13.622;2023-02-13T02:08:43;22.07;;;15.60;;
68653;SDS011;55636;51.108;13.622;2023-02-13T02:09:53;23.37;;;15.67;;
68653;SDS011;55636;51.108;13.622;2023-02-13T02:11:02;22.47;;;16.03;;
68653;SDS011;55636;51.108;13.622;2023-02-13T02:12:11;23.73;;;15.33;;
68653;SDS011;55636;51.108;13.622;2023-02-13T02:13:22;22.47;;;15.43;;
68653;SDS011;55636;51.108;13.622;2023-02-13T02:14:25;23.23;;;15.27;;
68653;SDS011;55636;51.108;13.622;2023-02-13T02:15:30;21.00;;;14.67;;
68653;SDS011;55636;51.108;13.622;2023-02-13T02:16:33;20.40;;;14.93;;
68653;SDS011;55636;51.108;13.622;2023-02-13T02:17:37;21.90;;;14.33;;
68653;SDS011;55636;51.108;13.622;2023-02-13T02:18:41;20.10;;;14.63;;
68653;SDS011;55636;51.108;13.622;2023-02-13T02:22:09;22.00;;;15.67;;
68653;SDS011;55636;51.108;13.622;2023-02-13T02:23:44;20.50;;;14.03;;
68653;SDS011;55636;51.108;13.622;2023-02-13T02:26:25;19.73;;;14.60;;
68653;SDS011;55636;51.108;13.622;2023-02-13T02:27:39;18.23;;;13.70;;
68653;SDS011;55636;51.108;13.622;2023-02-13T02:37:50;18.60;;;13.43;;
68653;SDS011;55636;51.108;13.622;2023-02-13T02:46:09;18.13;;;12.53;;
68653;SDS011;55636;51.108;13.622;2023-02-13T02:47:45;19.10;;;12.37;;
68653;SDS011;55636;51.108;13.622;2023-02-13T02:49:16;19.80;;;13.10;;
68653;SDS011;55636;51.108;13.622;2023-02-13T02:52:56;19.23;;;13.00;;
68653;SDS011;55636;51.108;13.622;2023-02-13T02:55:59;18.47;;;12.07;;
68653;SDS011;55636;51.108;13.622;2023-02-13T02:57:12;20.17;;;13.07;;
68653;SDS011;55636;51.108;13.622;2023-02-13T03:00:23;18.83;;;12.67;;
68653;SDS011;55636;51.108;13.622;2023-02-13T03:01:48;17.83;;;12.67;;
68653;SDS011;55636;51.108;13.622;2023-02-13T03:03:18;18.93;;;12.77;;
68653;SDS011;55636;51.108;13.622;2023-02-13T03:04:48;19.47;;;12.40;;
68653;SDS011;55636;51.108;13.622;2023-02-13T03:06:14;20.63;;;12.53;;
68653;SDS011;55636;51.108;13.622;2023-02-13T03:07:23;19.80;;;12.40;;
68653;SDS011;55636;51.108;13.622;2023-02-13T03:08:27;18.73;;;12.20;;
68653;SDS011;55636;51.108;13.622;2023-02-13T03:09:50;17.53;;;11.90;;
68653;SDS011;55636;51.108;13.622;2023-02-13T03:11:17;17.50;;;11.40;;
68653;SDS011;55636;51.108;13.622;2023-02-13T03:12:48;18.97;;;12.30;;
68653;SDS011;55636;51.108;13.622;2023-02-13T03:14:16;19.73;;;12.47;;
68653;SDS011;55636;51.108;13.622;2023-02-13T03:15:22;19.80;;;12.20;;
68653;SDS011;55636;51.108;13.622;2023-02-13T03:16:30;19.03;;;11.77;;
68653;SDS011;55636;51.108;13.622;2023-02-13T03:17:51;18.33;;;12.00;;
68653;SDS011;55636;51.108;13.622;2023-02-13T03:19:16;18.60;;;12.17;;
68653;SDS011;55636;51.108;13.622;2023-02-13T03:21:07;21.87;;;12.47;;
68653;SDS011;55636;51.108;13.622;2023-02-13T03:23:59;23.50;;;13.10;;
68653;SDS011;55636;51.108;13.622;2023-02-13T03:25:13;21.30;;;13.17;;
68653;SDS011;55636;51.108;13.622;2023-02-13T03:26:36;20.40;;;12.70;;
68653;SDS011;55636;51.108;13.622;2023-02-13T03:27:51;20.50;;;12.40;;
68653;SDS011;55636;51.108;13.622;2023-02-13T03:29:44;21.50;;;12.50;;
68653;SDS011;55636;51.108;13.622;2023-02-13T03:31:13;18.97;;;12.83;;
68653;SDS011;55636;51.108;13.622;2023-02-13T03:35:03;18.20;;;13.30;;
68653;SDS011;55636;51.108;13.622;2023-02-13T03:41:11;19.53;;;13.30;;
68653;SDS011;55636;51.108;13.622;2023-02-13T03:42:44;21.70;;;12.70;;
68653;SDS011;55636;51.108;13.622;2023-02-13T03:44:14;17.20;;;12.43;;
68653;SDS011;55636;51.108;13.622;2023-02-13T03:45:29;16.77;;;12.33;;
68653;SDS011;55636;51.108;13.622;2023-02-13T03:46:55;20.53;;;13.37;;
68653;SDS011;55636;51.108;13.622;2023-02-13T03:48:02;19.73;;;12.80;;
68653;SDS011;55636;51.108;13.622;2023-02-13T03:49:12;19.63;;;13.43;;
68653;SDS011;55636;51.108;13.622;2023-02-13T03:50:41;18.93;;;12.77;;
68653;SDS011;55636;51.108;13.622;2023-02-13T03:51:48;22.00;;;13.23;;
68653;SDS011;55636;51.108;13.622;2023-02-13T03:52:59;19.47;;;13.23;;
68653;SDS011;55636;51.108;13.622;2023-02-13T03:54:12;19.40;;;12.90;;
68653;SDS011;55636;51.108;13.622;2023-02-13T03:55:21;20.53;;;13.27;;
68653;SDS011;55636;51.108;13.622;2023-02-13T03:56:48;19.33;;;13.30;;
68653;SDS011;55636;51.108;13.622;2023-02-13T03:58:18;17.13;;;12.23;;
68653;SDS011;55636;51.108;13.622;2023-02-13T03:59:43;20.77;;;12.87;;
68653;SDS011;55636;51.108;13.622;2023-02-13T04:00:48;18.60;;;12.73;;
68653;SDS011;55636;51.108;13.622;2023-02-13T04:02:09;20.80;;;13.63;;
68653;SDS011;55636;51.108;13.622;2023-02-13T04:03:19;21.93;;;13.47;;
68653;SDS011;55636;51.108;13.622;2023-02-13T04:04:32;21.70;;;13.10;;
68653;SDS011;55636;51.108;13.622;2023-02-13T04:05:38;19.90;;;13.10;;
68653;SDS011;55636;51.108;13.622;2023-02-13T04:07:49;19.43;;;12.93;;
68653;SDS011;55636;51.108;13.622;2023-02-13T04:08:52;18.37;;;13.60;;
68653;SDS011;55636;51.108;13.622;2023-02-13T04:09:55;18.40;;;12.83;;
68653;SDS011;55636;51.108;13.622;2023-02-13T04:11:09;17.93;;;13.17;;
68653;SDS011;55636;51.108;13.622;2023-02-13T04:12:19;18.40;;;12.27;;
68653;SDS011;55636;51.108;13.622;2023-02-13T04:13:34;19.03;;;13.33;;
68653;SDS011;55636;51.108;13.622;2023-02-13T04:14:42;20.80;;;12.93;;
68653;SDS011;55636;51.108;13.622;2023-02-13T04:15:55;17.50;;;12.93;;
68653;SDS011;55636;51.108;13.622;2023-02-13T04:17:04;15.70;;;11.83;;
68653;SDS011;55636;51.108;13.622;2023-02-13T04:18:12;16.60;;;12.60;;
68653;SDS011;55636;51.108;13.622;2023-02-13T04:19:17;19.33;;;12.73;;
68653;SDS011;55636;51.108;13.622;2023-02-13T04:20:21;19.43;;;12.87;;
68653;SDS011;55636;51.108;13.622;2023-02-13T04:21:31;16.73;;;12.33;;
68653;SDS011;55636;51.108;13.622;2023-02-13T04:22:40;18.87;;;12.77;;
68653;SDS011;55636;51.108;13.622;2023-02-13T04:23:43;16.43;;;11.83;;
68653;SDS011;55636;51.108;13.622;2023-02-13T04:24:46;19.60;;;13.53;;
68653;SDS011;55636;51.108;13.622;2023-02-13T04:25:49;17.13;;;13.53;;
68653;SDS011;55636;51.108;13.622;2023-02-13T04:26:55;17.23;;;12.73;;
68653;SDS011;55636;51.108;13.622;2023-02-13T04:27:58;18.03;;;12.37;;
68653;SDS011;55636;51.108;13.622;2023-02-13T04:29:03;18.33;;;13.33;;
68653;SDS011;55636;51.108;13.622;2023-02-13T04:30:06;18.63;;;13.50;;
68653;SDS011;55636;51.108;13.622;2023-02-13T04:31:10;18.30;;;13.27;;
68653;SDS011;55636;51.108;13.622;2023-02-13T04:32:12;18.13;;;12.50;;
68653;SDS011;55636;51.108;13.622;2023-02-13T04:33:18;17.73;;;12.80;;
68653;SDS011;55636;51.108;13.622;2023-02-13T04:34:20;18.63;;;12.70;;
68653;SDS011;55636;51.108;13.622;2023-02-13T04:35:22;16.07;;;12.20;;
68653;SDS011;55636;51.108;13.622;2023-02-13T04:36:25;17.73;;;12.13;;
68653;SDS011;55636;51.108;13.622;2023-02-13T04:37:28;15.90;;;12.50;;
68653;SDS011;55636;51.108;13.622;2023-02-13T04:38:30;16.40;;;12.77;;
68653;SDS011;55636;51.108;13.622;2023-02-13T04:39:32;16.33;;;11.83;;
68653;SDS011;55636;51.108;13.622;2023-02-13T04:40:35;15.83;;;11.83;;
68653;SDS011;55636;51.108;13.622;2023-02-13T04:41:37;16.50;;;12.13;;
68653;SDS011;55636;51.108;13.622;2023-02-13T04:42:39;17.90;;;12.47;;
68653;SDS011;55636;51.108;13.622;2023-02-13T04:43:41;15.50;;;11.83;;
68653;SDS011;55636;51.108;13.622;2023-02-13T04:44:44;15.30;;;11.87;;
68653;SDS011;55636;51.108;13.622;2023-02-13T04:45:47;15.70;;;11.77;;
68653;SDS011;55636;51.108;13.622;2023-02-13T04:46:50;14.90;;;11.53;;
68653;SDS011;55636;51.108;13.622;2023-02-13T04:47:53;13.97;;;10.77;;
68653;SDS011;55636;51.108;13.622;2023-02-13T04:48:58;14.13;;;11.00;;
68653;SDS011;55636;51.108;13.622;2023-02-13T04:50:00;14.20;;;11.27;;
68653;SDS011;55636;51.108;13.622;2023-02-13T04:51:04;13.97;;;11.13;;
68653;SDS011;55636;51.108;13.622;2023-02-13T04:52:07;14.10;;;10.90;;
68653;SDS011;55636;51.108;13.622;2023-02-13T04:53:09;13.63;;;10.53;;
68653;SDS011;55636;51.108;13.622;2023-02-13T04:54:13;14.23;;;10.23;;
68653;SDS011;55636;51.108;13.622;2023-02-13T04:55:15;14.40;;;10.67;;
68653;SDS011;55636;51.108;13.622;2023-02-13T04:56:17;13.00;;;10.80;;
68653;SDS011;55636;51.108;13.622;2023-02-13T04:57:20;12.73;;;9.57;;
68653;SDS011;55636;51.108;13.622;2023-02-13T04:58:23;13.20;;;9.77;;
68653;SDS011;55636;51.108;13.622;2023-02-13T04:59:25;14.50;;;10.40;;
68653;SDS011;55636;51.108;13.622;2023-02-13T05:00:29;12.67;;;10.47;;
68653;SDS011;55636;51.108;13.622;2023-02-13T05:01:31;13.80;;;10.23;;
68653;SDS011;55636;51.108;13.622;2023-02-13T05:02:34;13.13;;;10.33;;
68653;SDS011;55636;51.108;13.622;2023-02-13T05:03:40;13.07;;;9.87;;
68653;SDS011;55636;51.108;13.622;2023-02-13T05:04:43;13.30;;;10.40;;
68653;SDS011;55636;51.108;13.622;2023-02-13T05:05:46;14.07;;;10.10;;
68653;SDS011;55636;51.108;13.622;2023-02-13T05:06:51;11.77;;;10.03;;
68653;SDS011;55636;51.108;13.622;2023-02-13T05:07:53;11.30;;;9.63;;
68653;SDS011;55636;51.108;13.622;2023-02-13T05:08:56;13.50;;;10.53;;
68653;SDS011;55636;51.108;13.622;2023-02-13T05:09:58;13.00;;;10.17;;
68653;SDS011;55636;51.108;13.622;2023-02-13T05:11:01;14.07;;;9.90;;
68653;SDS011;55636;51.108;13.622;2023-02-13T05:12:04;11.53;;;9.63;;
68653;SDS011;55636;51.108;13.622;2023-02-13T05:13:07;10.57;;;9.30;;
68653;SDS011;55636;51.108;13.622;2023-02-13T05:14:09;13.07;;;10.50;;
68653;SDS011;55636;51.108;13.622;2023-02-13T05:15:12;11.30;;;9.80;;
68653;SDS011;55636;51.108;13.622;2023-02-13T05:16:14;11.43;;;9.23;;
68653;SDS011;55636;51.108;13.622;2023-02-13T05:17:17;11.37;;;9.23;;
68653;SDS011;55636;51.108;13.622;2023-02-13T05:18:19;15.40;;;10.23;;
68653;SDS011;55636;51.108;13.622;2023-02-13T05:19:21;11.60;;;9.67;;
68653;SDS011;55636;51.108;13.622;2023-02-13T05:20:23;11.20;;;8.87;;
68653;SDS011;55636;51.108;13.622;2023-02-13T05:21:26;11.47;;;9.00;;
68653;SDS011;55636;51.108;13.622;2023-02-13T05:22:48;10.23;;;8.80;;
68653;SDS011;55636;51.108;13.622;2023-02-13T05:24:10;11.80;;;9.27;;
68653;SDS011;55636;51.108;13.622;2023-02-13T05:25:12;12.03;;;9.30;;
68653;SDS011;55636;51.108;13.622;2023-02-13T05:26:14;13.30;;;9.50;;
68653;SDS011;55636;51.108;13.622;2023-02-13T05:27:17;12.27;;;9.50;;
68653;SDS011;55636;51.108;13.622;2023-02-13T05:28:19;10.80;;;9.00;;
68653;SDS011;55636;51.108;13.622;2023-02-13T05:29:40;13.00;;;9.57;;
68653;SDS011;55636;51.108;13.622;2023-02-13T05:30:42;10.10;;;9.00;;
68653;SDS011;55636;51.108;13.622;2023-02-13T05:31:45;13.77;;;10.07;;
68653;SDS011;55636;51.108;13.622;2023-02-13T05:32:48;12.40;;;9.17;;
68653;SDS011;55636;51.108;13.622;2023-02-13T05:33:53;11.33;;;8.97;;
68653;SDS011;55636;51.108;13.622;2023-02-13T05:34:56;11.23;;;9.50;;
68653;SDS011;55636;51.108;13.622;2023-02-13T05:35:58;15.73;;;9.83;;
68653;SDS011;55636;51.108;13.622;2023-02-13T05:37:01;12.97;;;9.77;;
68653;SDS011;55636;51.108;13.622;2023-02-13T05:38:06;13.20;;;9.63;;
68653;SDS011;55636;51.108;13.622;2023-02-13T05:39:09;12.83;;;9.53;;
68653;SDS011;55636;51.108;13.622;2023-02-13T05:40:13;12.70;;;9.30;;
68653;SDS011;55636;51.108;13.622;2023-02-13T05:41:16;12.83;;;9.83;;
68653;SDS011;55636;51.108;13.622;2023-02-13T05:42:18;12.67;;;9.17;;
68653;SDS011;55636;51.108;13.622;2023-02-13T05:43:20;12.23;;;9.67;;
68653;SDS011;55636;51.108;13.622;2023-02-13T05:44:22;11.97;;;10.10;;
68653;SDS011;55636;51.108;13.622;2023-02-13T05:45:24;12.30;;;9.53;;
68653;SDS011;55636;51.108;13.622;2023-02-13T05:46:27;14.30;;;10.27;;
68653;SDS011;55636;51.108;13.622;2023-02-13T05:47:29;12.33;;;10.07;;
68653;SDS011;55636;51.108;13.622;2023-02-13T05:48:31;12.57;;;10.23;;
68653;SDS011;55636;51.108;13.622;2023-02-13T05:49:35;12.30;;;9.37;;
68653;SDS011;55636;51.108;13.622;2023-02-13T05:50:37;15.00;;;10.43;;
68653;SDS011;55636;51.108;13.622;2023-02-13T05:51:41;15.20;;;10.43;;
68653;SDS011;55636;51.108;13.622;2023-02-13T05:52:44;14.13;;;10.40;;
68653;SDS011;55636;51.108;13.622;2023-02-13T05:53:46;15.47;;;10.73;;
68653;SDS011;55636;51.108;13.622;2023-02-13T05:54:49;15.40;;;10.83;;
68653;SDS011;55636;51.108;13.622;2023-02-13T05:55:52;12.87;;;9.97;;
68653;SDS011;55636;51.108;13.622;2023-02-13T05:56:54;13.83;;;10.00;;
68653;SDS011;55636;51.108;13.622;2023-02-13T05:57:57;14.03;;;10.57;;
68653;SDS011;55636;51.108;13.622;2023-02-13T05:58:59;14.37;;;10.10;;
68653;SDS011;55636;51.108;13.622;2023-02-13T06:00:03;13.67;;;10.53;;
68653;SDS011;55636;51.108;13.622;2023-02-13T06:01:06;13.07;;;9.70;;
68653;SDS011;55636;51.108;13.622;2023-02-13T06:02:08;15.17;;;10.77;;
68653;SDS011;55636;51.108;13.622;2023-02-13T06:03:11;13.73;;;10.20;;
68653;SDS011;55636;51.108;13.622;2023-02-13T06:04:14;16.03;;;11.03;;
68653;SDS011;55636;51.108;13.622;2023-02-13T06:05:17;14.70;;;10.00;;
68653;SDS011;55636;51.108;13.622;2023-02-13T06:06:19;16.00;;;11.00;;
68653;SDS011;55636;51.108;13.622;2023-02-13T06:07:22;14.73;;;10.13;;
68653;SDS011;55636;51.108;13.622;2023-02-13T06:08:24;15.50;;;11.10;;
68653;SDS011;55636;51.108;13.622;2023-02-13T06:09:27;15.83;;;11.03;;
68653;SDS011;55636;51.108;13.622;2023-02-13T06:10:31;15.40;;;11.03;;
68653;SDS011;55636;51.108;13.622;2023-02-13T06:11:33;17.80;;;11.17;;
68653;SDS011;55636;51.108;13.622;2023-02-13T06:12:37;13.73;;;10.73;;
68653;SDS011;55636;51.108;13.622;2023-02-13T06:13:39;17.70;;;11.40;;
68653;SDS011;55636;51.108;13.622;2023-02-13T06:14:42;16.40;;;11.63;;
68653;SDS011;55636;51.108;13.622;2023-02-13T06:15:45;15.13;;;11.27;;
68653;SDS011;55636;51.108;13.622;2023-02-13T06:16:47;18.07;;;11.60;;
68653;SDS011;55636;51.108;13.622;2023-02-13T06:17:53;16.10;;;11.77;;
68653;SDS011;55636;51.108;13.622;2023-02-13T06:18:58;14.90;;;11.37;;
68653;SDS011;55636;51.108;13.622;2023-02-13T06:20:00;15.47;;;11.67;;
68653;SDS011;55636;51.108;13.622;2023-02-13T06:21:03;16.70;;;12.00;;
68653;SDS011;55636;51.108;13.622;2023-02-13T06:22:07;17.00;;;11.70;;
68653;SDS011;55636;51.108;13.622;2023-02-13T06:23:09;15.73;;;11.57;;
68653;SDS011;55636;51.108;13.622;2023-02-13T06:24:12;14.97;;;11.10;;
68653;SDS011;55636;51.108;13.622;2023-02-13T06:25:15;20.63;;;12.23;;
68653;SDS011;55636;51.108;13.622;2023-02-13T06:26:17;17.30;;;11.50;;
68653;SDS011;55636;51.108;13.622;2023-02-13T06:27:19;17.60;;;11.80;;
68653;SDS011;55636;51.108;13.622;2023-02-13T06:28:22;15.67;;;11.70;;
68653;SDS011;55636;51.108;13.622;2023-02-13T06:29:24;15.93;;;11.53;;
68653;SDS011;55636;51.108;13.622;2023-02-13T06:30:26;16.63;;;11.60;;
68653;SDS011;55636;51.108;13.622;2023-02-13T06:31:30;19.37;;;12.70;;
68653;SDS011;55636;51.108;13.622;2023-02-13T06:32:32;16.30;;;11.47;;
68653;SDS011;55636;51.108;13.622;2023-02-13T06:33:34;18.63;;;11.57;;
68653;SDS011;55636;51.108;13.622;2023-02-13T06:34:36;17.20;;;12.00;;
68653;SDS011;55636;51.108;13.622;2023-02-13T06:35:38;18.63;;;12.67;;
68653;SDS011;55636;51.108;13.622;2023-02-13T06:36:41;19.27;;;12.57;;
68653;SDS011;55636;51.108;13.622;2023-02-13T06:37:44;21.13;;;13.03;;
68653;SDS011;55636;51.108;13.622;2023-02-13T06:38:47;17.47;;;12.17;;
68653;SDS011;55636;51.108;13.622;2023-02-13T06:39:49;18.13;;;12.50;;
68653;SDS011;55636;51.108;13.622;2023-02-13T06:40:52;16.03;;;11.53;;
68653;SDS011;55636;51.108;13.622;2023-02-13T06:41:54;16.90;;;12.10;;
68653;SDS011;55636;51.108;13.622;2023-02-13T06:42:59;19.83;;;11.93;;
68653;SDS011;55636;51.108;13.622;2023-02-13T06:44:03;17.00;;;11.80;;
68653;SDS011;55636;51.108;13.622;2023-02-13T06:45:06;20.13;;;12.80;;
68653;SDS011;55636;51.108;13.622;2023-02-13T06:46:09;16.40;;;11.97;;
68653;SDS011;55636;51.108;13.622;2023-02-13T06:47:12;17.00;;;12.40;;
68653;SDS011;55636;51.108;13.622;2023-02-13T06:48:15;20.00;;;12.70;;
68653;SDS011;55636;51.108;13.622;2023-02-13T06:49:17;19.90;;;13.40;;
68653;SDS011;55636;51.108;13.622;2023-02-13T06:50:20;20.20;;;13.43;;
68653;SDS011;55636;51.108;13.622;2023-02-13T06:51:22;20.07;;;12.80;;
68653;SDS011;55636;51.108;13.622;2023-02-13T06:52:25;19.80;;;13.67;;
68653;SDS011;55636;51.108;13.622;2023-02-13T06:53:28;18.57;;;13.37;;
68653;SDS011;55636;51.108;13.622;2023-02-13T06:54:31;18.33;;;13.30;;
68653;SDS011;55636;51.108;13.622;2023-02-13T06:55:48;18.10;;;12.83;;
68653;SDS011;55636;51.108;13.622;2023-02-13T06:56:51;23.57;;;13.47;;
68653;SDS011;55636;51.108;13.622;2023-02-13T06:57:55;20.60;;;14.07;;
68653;SDS011;55636;51.108;13.622;2023-02-13T06:59:00;19.27;;;13.20;;
68653;SDS011;55636;51.108;13.622;2023-02-13T07:00:05;19.80;;;13.37;;
68653;SDS011;55636;51.108;13.622;2023-02-13T07:01:07;19.57;;;13.20;;
68653;SDS011;55636;51.108;13.622;2023-02-13T07:02:12;18.50;;;12.70;;